Arnott, Wisconsin
Current Conditions -  °F | °C
As of 7:55 AM on Sunday 25 Jan 2015 (Local Time) from KSTE Reporting Station
Overcast Overcast  
Wind Chill:   Ceiling: 2100
Heat Index: 17°   Visibility: 10mi
Dew Point: 10°   Wind: 12mph
Humidity: 74%   Direction: 80°E
Pressure: 29.92"   Gusts: NA
Location:  44.5531°N, 89.5186°W
Report Text: KSTE 251355Z AUTO 08010KT 10SM OVC021 M08/M12 A2992 RMK AO2 T10831122
Loading
Personal Weather Stations






























Interactive Weather Map New forecast layout! Learn more

10-Day Weather Forecast

Advertisements
Track Severe Weather on mobile